Time;durP1;ratioP1;P1;durP2;ratioP2;P2;SDS_P1;SDS_P2;PMS_P1;PMS_P2;Temp;Humidity;BMP_temperature;BMP_pressure;BME280_temperature;BME280_humidity;BME280_pressure;Samples;Min_cycle;Max_cycle;Signal;HPM_P1;HPM_P2
2022/08/28 00:00:29;;;;;;;3.60;1.40;;;19.50;99.90;;;;;;4957147;29;20783;-78
2022/08/28 00:02:56;;;;;;;5.80;2.20;;;19.30;99.90;;;;;;4957590;29;20181;-77
2022/08/28 00:05:24;;;;;;;7.10;2.13;;;19.30;99.90;;;;;;4957252;28;20424;-78
2022/08/28 00:07:50;;;;;;;6.97;1.90;;;19.50;99.90;;;;;;4957569;29;20440;-78
2022/08/28 00:10:19;;;;;;;4.57;1.70;;;19.50;99.90;;;;;;4956862;29;20441;-75
2022/08/28 00:12:46;;;;;;;7.73;1.80;;;19.50;99.90;;;;;;4957438;29;20181;-78
2022/08/28 00:15:20;;;;;;;2.30;1.50;;;19.50;99.90;;;;;;4957613;29;20417;-79
2022/08/28 00:17:48;;;;;;;5.37;1.90;;;19.50;99.90;;;;;;4957673;29;20430;-76
2022/08/28 00:20:17;;;;;;;5.83;2.00;;;19.50;99.90;;;;;;4956876;29;20419;-77
2022/08/28 00:22:43;;;;;;;7.27;1.77;;;19.50;99.90;;;;;;4957316;29;20556;-77
2022/08/28 00:25:11;;;;;;;5.17;1.80;;;19.50;99.90;;;;;;4957362;29;20387;-75
2022/08/28 00:27:52;;;;;;;7.23;2.23;;;19.40;99.90;;;;;;4956079;29;20417;-78
2022/08/28 00:30:20;;;;;;;5.90;1.63;;;19.30;99.90;;;;;;4955664;29;20779;-77
2022/08/28 00:32:46;;;;;;;9.43;2.20;;;19.30;99.90;;;;;;4957134;29;20497;-77
2022/08/28 00:35:12;;;;;;;7.67;1.77;;;19.40;99.90;;;;;;4955919;29;20395;-76
2022/08/28 00:37:38;;;;;;;3.00;1.43;;;19.30;99.90;;;;;;4955798;29;20410;-75
2022/08/28 00:40:07;;;;;;;6.07;1.80;;;19.40;99.90;;;;;;4956659;29;20618;-78
2022/08/28 00:42:34;;;;;;;5.90;1.80;;;19.40;99.90;;;;;;4956844;29;20468;-76
2022/08/28 00:44:59;;;;;;;3.90;1.53;;;19.40;99.90;;;;;;4956912;29;20789;-78
2022/08/28 00:47:27;;;;;;;2.90;1.40;;;19.20;99.90;;;;;;4955923;29;20387;-78
2022/08/28 00:49:54;;;;;;;7.23;1.83;;;19.10;99.90;;;;;;4956497;29;20174;-75
2022/08/28 00:52:23;;;;;;;3.67;1.73;;;19.10;99.90;;;;;;4956778;29;20923;-78
2022/08/28 00:54:58;;;;;;;3.90;1.63;;;19.10;99.90;;;;;;4956621;28;20467;-76
2022/08/28 00:57:35;;;;;;;5.97;1.90;;;19.10;99.90;;;;;;4956769;29;20940;-76
2022/08/28 01:00:07;;;;;;;4.40;1.73;;;19.10;99.90;;;;;;4956332;28;20512;-78
2022/08/28 01:02:33;;;;;;;3.23;1.20;;;19.20;99.90;;;;;;4956286;28;20456;-79
2022/08/28 01:04:58;;;;;;;2.50;1.50;;;19.10;99.90;;;;;;4956483;29;20428;-77
2022/08/28 01:07:24;;;;;;;3.53;1.30;;;19.10;99.90;;;;;;4956475;29;20543;-77
2022/08/28 01:09:53;;;;;;;4.47;1.60;;;19.00;99.90;;;;;;4938798;29;20264;-78
2022/08/28 01:12:23;;;;;;;4.63;1.33;;;19.10;99.90;;;;;;4956482;29;20519;-76
2022/08/28 01:14:53;;;;;;;4.37;1.43;;;18.90;99.90;;;;;;4955227;29;20538;-77
2022/08/28 01:17:22;;;;;;;6.40;1.87;;;18.90;99.90;;;;;;4955758;29;20414;-75
2022/08/28 01:19:55;;;;;;;4.87;1.50;;;19.00;99.90;;;;;;4955910;29;20428;-76
2022/08/28 01:22:28;;;;;;;6.83;1.67;;;19.00;99.90;;;;;;4956188;29;20439;-78
2022/08/28 01:24:57;;;;;;;6.77;1.53;;;19.00;99.90;;;;;;4956098;29;20480;-76
2022/08/28 01:27:23;;;;;;;5.43;1.30;;;19.00;99.90;;;;;;4956078;29;20506;-78
2022/08/28 01:29:49;;;;;;;7.03;3.20;;;19.00;99.90;;;;;;4955842;29;20428;-78
2022/08/28 01:32:30;;;;;;;5.20;2.03;;;18.90;99.90;;;;;;4956051;29;20408;-76
2022/08/28 01:34:56;;;;;;;4.37;1.70;;;18.90;99.90;;;;;;4955800;29;20396;-77
2022/08/28 01:37:22;;;;;;;7.20;1.93;;;18.90;99.90;;;;;;4954737;29;20804;-76
2022/08/28 01:39:48;;;;;;;4.40;1.87;;;18.90;99.90;;;;;;4955565;29;20456;-77
2022/08/28 01:42:13;;;;;;;2.90;1.43;;;18.90;99.90;;;;;;4955743;29;20209;-76
2022/08/28 01:44:39;;;;;;;3.67;1.27;;;18.80;99.90;;;;;;4955649;29;20182;-77
2022/08/28 01:47:05;;;;;;;6.43;1.57;;;18.70;99.90;;;;;;4954416;28;20177;-77
2022/08/28 01:49:30;;;;;;;5.50;1.43;;;18.70;99.90;;;;;;4955656;29;20177;-76
2022/08/28 01:51:56;;;;;;;4.87;1.60;;;18.70;99.90;;;;;;4954218;28;20209;-75
2022/08/28 01:54:23;;;;;;;2.37;1.70;;;18.70;99.90;;;;;;4955660;29;20190;-77
2022/08/28 01:56:49;;;;;;;6.63;1.30;;;18.70;99.90;;;;;;4955610;29;20399;-77
2022/08/28 01:59:15;;;;;;;3.60;1.50;;;18.60;99.90;;;;;;4954359;28;20425;-77
2022/08/28 02:01:42;;;;;;;5.37;1.57;;;18.60;99.90;;;;;;4953887;29;20555;-79
2022/08/28 02:04:09;;;;;;;7.50;1.77;;;18.50;99.90;;;;;;4955494;29;20166;-77
2022/08/28 02:06:35;;;;;;;4.30;1.20;;;18.50;99.90;;;;;;4955426;29;20384;-75
2022/08/28 02:09:01;;;;;;;6.90;1.77;;;18.50;99.90;;;;;;4955378;29;20388;-80
2022/08/28 02:11:28;;;;;;;7.20;1.93;;;18.40;99.90;;;;;;4954907;29;20418;-77
2022/08/28 02:13:54;;;;;;;3.40;1.47;;;18.30;99.90;;;;;;4955227;29;20855;-78
2022/08/28 02:16:20;;;;;;;7.50;1.83;;;18.30;99.90;;;;;;4955431;29;20483;-78
2022/08/28 02:18:46;;;;;;;3.93;1.57;;;18.30;99.90;;;;;;4955429;29;20419;-79
2022/08/28 02:21:11;;;;;;;10.53;1.70;;;18.30;99.90;;;;;;4953620;29;20461;-74
2022/08/28 02:23:40;;;;;;;6.53;1.97;;;18.30;99.90;;;;;;4955412;29;20173;-77
2022/08/28 02:26:07;;;;;;;6.97;1.67;;;18.20;99.90;;;;;;4955255;29;20181;-77
2022/08/28 02:28:33;;;;;;;5.73;1.90;;;18.30;99.90;;;;;;4955310;29;20415;-75
2022/08/28 02:30:58;;;;;;;4.30;2.07;;;18.20;99.90;;;;;;4954849;29;20472;-78
2022/08/28 02:33:24;;;;;;;6.00;2.77;;;18.20;99.90;;;;;;4955186;29;20189;-76
2022/08/28 02:35:50;;;;;;;4.10;2.00;;;18.20;99.90;;;;;;4955261;29;20669;-77
2022/08/28 02:38:16;;;;;;;5.90;1.73;;;18.30;99.90;;;;;;4953985;29;20422;-79
2022/08/28 02:40:42;;;;;;;7.17;2.03;;;18.20;99.90;;;;;;4954746;29;20634;-76
2022/08/28 02:43:08;;;;;;;4.47;1.80;;;18.10;99.90;;;;;;4955071;29;20487;-75
2022/08/28 02:45:35;;;;;;;5.20;1.60;;;18.10;99.90;;;;;;4955009;29;20411;-78
2022/08/28 02:48:01;;;;;;;4.17;2.37;;;18.10;99.90;;;;;;4955042;29;20823;-75
2022/08/28 02:50:28;;;;;;;6.60;2.13;;;18.20;99.90;;;;;;4954708;29;20779;-76
2022/08/28 02:52:54;;;;;;;9.47;2.07;;;18.20;99.90;;;;;;4955053;29;20425;-77
2022/08/28 02:55:23;;;;;;;7.83;2.40;;;18.10;99.90;;;;;;4954995;29;20402;-78
2022/08/28 02:57:49;;;;;;;5.90;2.40;;;18.00;99.90;;;;;;4954901;29;20396;-75
2022/08/28 03:00:19;;;;;;;6.10;2.27;;;17.90;99.90;;;;;;4954622;29;20515;-78
2022/08/28 03:02:45;;;;;;;7.47;2.10;;;17.90;99.90;;;;;;4954767;29;20464;-77
2022/08/28 03:05:14;;;;;;;10.30;3.30;;;17.90;99.90;;;;;;4953725;29;20409;-78
2022/08/28 03:07:39;;;;;;;7.83;2.83;;;17.60;99.90;;;;;;4954783;29;20384;-76
2022/08/28 03:10:06;;;;;;;8.33;2.47;;;17.60;99.90;;;;;;4954234;29;20468;-76
2022/08/28 03:12:33;;;;;;;7.53;2.80;;;17.70;99.90;;;;;;4954802;29;20182;-79
2022/08/28 03:14:59;;;;;;;6.17;2.67;;;17.70;99.90;;;;;;4954732;29;20392;-77
2022/08/28 03:17:28;;;;;;;7.00;2.90;;;17.60;99.90;;;;;;4954914;29;20421;-76
2022/08/28 03:19:53;;;;;;;8.97;2.90;;;17.50;99.90;;;;;;4953174;29;20196;-76
2022/08/28 03:23:24;;;;;;;5.27;2.57;;;17.50;99.90;;;;;;4953558;29;20530;-78
2022/08/28 03:25:06;;;;;;;9.17;3.03;;;17.50;99.90;;;;;;4954675;29;20185;-77
2022/08/28 03:27:31;;;;;;;9.20;2.80;;;17.40;99.90;;;;;;4954657;29;20388;-76
2022/08/28 03:29:57;;;;;;;9.90;3.60;;;17.40;99.90;;;;;;4954327;29;20421;-78
2022/08/28 03:32:24;;;;;;;8.27;2.80;;;17.20;99.90;;;;;;4953535;29;20193;-76
2022/08/28 03:34:50;;;;;;;7.00;2.93;;;17.20;99.90;;;;;;4954613;29;20976;-76
2022/08/28 03:37:16;;;;;;;7.47;3.23;;;17.10;99.90;;;;;;4954995;29;20504;-76
2022/08/28 03:39:41;;;;;;;5.60;3.20;;;17.10;99.90;;;;;;4955087;28;20185;-75
2022/08/28 03:42:07;;;;;;;5.40;3.10;;;17.00;99.90;;;;;;4957992;29;20616;-76
2022/08/28 03:44:32;;;;;;;8.20;3.27;;;17.10;99.90;;;;;;4958131;29;20182;-77
2022/08/28 03:46:58;;;;;;;14.27;3.63;;;17.10;99.90;;;;;;4958057;29;20178;-76
2022/08/28 03:49:23;;;;;;;9.70;3.37;;;17.00;99.90;;;;;;4957965;29;20186;-78
2022/08/28 03:51:49;;;;;;;8.67;3.73;;;16.90;99.90;;;;;;4956306;29;20204;-77
2022/08/28 03:54:15;;;;;;;9.10;3.47;;;16.80;99.90;;;;;;4957788;29;20185;-77
2022/08/28 03:56:41;;;;;;;5.50;3.13;;;16.70;99.90;;;;;;4956531;29;20189;-77
2022/08/28 03:59:07;;;;;;;11.03;3.90;;;16.70;99.90;;;;;;4957766;29;20233;-76
2022/08/28 04:01:33;;;;;;;11.20;3.93;;;16.60;99.90;;;;;;4957167;29;20476;-75
2022/08/28 04:03:59;;;;;;;7.13;3.20;;;16.60;99.90;;;;;;4957491;29;20392;-75
2022/08/28 04:06:26;;;;;;;8.70;3.30;;;16.60;99.90;;;;;;4957600;29;20182;-76
2022/08/28 04:08:52;;;;;;;9.47;3.00;;;16.40;99.90;;;;;;4957536;29;20414;-76
2022/08/28 04:11:18;;;;;;;7.07;3.47;;;16.30;99.90;;;;;;4957151;29;20937;-76
2022/08/28 04:13:43;;;;;;;11.20;4.20;;;16.30;99.90;;;;;;4957476;29;20189;-78
2022/08/28 04:16:12;;;;;;;8.90;4.03;;;16.40;99.90;;;;;;4956240;29;20185;-76
2022/08/28 04:18:40;;;;;;;8.90;3.90;;;16.40;99.90;;;;;;4957483;29;20194;-76
2022/08/28 04:21:11;;;;;;;12.43;3.80;;;16.40;99.90;;;;;;4957064;29;20466;-77
2022/08/28 04:23:38;;;;;;;12.07;4.33;;;16.30;99.90;;;;;;4956006;29;20479;-76
2022/08/28 04:26:06;;;;;;;11.67;3.90;;;16.30;99.90;;;;;;4957174;29;20547;-75
2022/08/28 04:28:32;;;;;;;9.53;4.27;;;16.20;99.90;;;;;;4957188;29;20425;-78
2022/08/28 04:30:57;;;;;;;7.03;3.80;;;16.20;99.90;;;;;;4956860;29;20424;-76
2022/08/28 04:33:25;;;;;;;11.30;4.50;;;16.00;99.90;;;;;;4955901;29;20438;-76
2022/08/28 04:35:51;;;;;;;8.13;4.00;;;16.00;99.90;;;;;;4957219;29;20286;-75
2022/08/28 04:38:17;;;;;;;7.43;3.40;;;16.00;99.90;;;;;;4957020;29;20426;-76
2022/08/28 04:40:43;;;;;;;11.40;4.30;;;16.00;99.90;;;;;;4956617;29;20478;-77
2022/08/28 04:43:09;;;;;;;15.80;4.53;;;15.90;99.90;;;;;;4957002;29;20932;-75
2022/08/28 04:45:39;;;;;;;11.43;3.63;;;15.90;99.90;;;;;;4955651;29;20251;-78
2022/08/28 04:48:05;;;;;;;10.03;4.00;;;15.90;99.90;;;;;;4955507;29;20934;-75
2022/08/28 04:50:31;;;;;;;12.23;3.93;;;15.90;99.90;;;;;;4954054;28;20964;-76
2022/08/28 04:52:57;;;;;;;8.77;3.53;;;15.90;99.90;;;;;;4956978;28;20472;-77
2022/08/28 04:55:23;;;;;;;8.03;3.80;;;15.90;99.90;;;;;;4956834;29;20181;-78
2022/08/28 04:57:48;;;;;;;12.67;4.27;;;15.90;99.90;;;;;;4956628;29;20420;-76
2022/08/28 05:00:14;;;;;;;10.07;4.40;;;15.90;99.90;;;;;;4956260;29;20202;-75
2022/08/28 05:02:40;;;;;;;10.30;4.50;;;15.90;99.90;;;;;;4956445;29;20216;-75
2022/08/28 05:05:06;;;;;;;12.03;5.50;;;16.00;99.90;;;;;;4956832;29;20391;-74
2022/08/28 05:07:33;;;;;;;11.93;4.27;;;15.90;99.90;;;;;;4955112;29;20209;-75
2022/08/28 05:09:58;;;;;;;8.20;3.93;;;15.90;99.90;;;;;;4938869;29;20404;-77
2022/08/28 05:12:24;;;;;;;10.73;3.80;;;15.90;99.90;;;;;;4939031;29;20947;-76
2022/08/28 05:14:50;;;;;;;9.93;4.20;;;15.90;99.90;;;;;;4955210;29;20185;-76
2022/08/28 05:17:15;;;;;;;13.40;4.27;;;16.00;99.90;;;;;;4955070;29;20185;-78
2022/08/28 05:19:42;;;;;;;9.53;4.40;;;15.90;99.90;;;;;;4956278;29;20276;-75
2022/08/28 05:22:11;;;;;;;7.03;4.70;;;16.00;99.90;;;;;;4956251;29;20205;-78
2022/08/28 05:24:36;;;;;;;8.17;4.27;;;15.90;99.90;;;;;;4956178;29;20873;-77
2022/08/28 05:27:02;;;;;;;21.30;5.40;;;15.90;99.90;;;;;;4954806;29;20407;-76
2022/08/28 05:29:28;;;;;;;10.50;4.00;;;15.90;99.90;;;;;;4956191;29;20269;-78
2022/08/28 05:31:54;;;;;;;10.67;3.87;;;15.90;99.90;;;;;;4955771;29;20433;-79
2022/08/28 05:34:20;;;;;;;15.30;4.53;;;15.90;99.90;;;;;;4956002;29;20918;-77
2022/08/28 05:36:46;;;;;;;12.60;5.17;;;16.00;99.90;;;;;;4954617;29;20193;-77
2022/08/28 05:39:12;;;;;;;7.97;3.70;;;16.00;99.90;;;;;;4955951;29;20178;-77
2022/08/28 05:41:40;;;;;;;8.87;3.83;;;16.20;99.90;;;;;;4955372;29;20467;-75
2022/08/28 05:44:09;;;;;;;11.33;4.80;;;16.10;99.90;;;;;;4955886;29;20445;-76
2022/08/28 05:46:37;;;;;;;11.73;4.70;;;16.10;99.90;;;;;;4955647;29;20429;-75
2022/08/28 05:49:03;;;;;;;9.90;4.50;;;16.10;99.90;;;;;;4955702;29;20442;-80
2022/08/28 05:51:30;;;;;;;10.10;4.07;;;16.20;99.90;;;;;;4955342;29;20444;-78
2022/08/28 05:53:57;;;;;;;8.77;4.03;;;16.00;99.90;;;;;;4955867;29;20400;-75
2022/08/28 05:56:26;;;;;;;8.90;3.40;;;16.10;99.90;;;;;;4954520;29;20456;-78
2022/08/28 05:58:51;;;;;;;12.00;3.80;;;16.30;99.90;;;;;;4955462;29;20446;-75
2022/08/28 06:01:25;;;;;;;7.67;4.23;;;16.40;99.90;;;;;;4953639;28;20560;-77
2022/08/28 06:03:57;;;;;;;10.40;4.00;;;16.50;99.90;;;;;;4955699;29;20178;-76
2022/08/28 06:06:24;;;;;;;12.03;4.37;;;16.50;99.90;;;;;;4955480;29;20413;-77
2022/08/28 06:08:55;;;;;;;12.93;4.00;;;16.60;99.90;;;;;;4954407;29;20967;-75
2022/08/28 06:11:21;;;;;;;10.23;3.60;;;16.60;99.90;;;;;;4954986;29;20416;-78
2022/08/28 06:13:46;;;;;;;9.77;3.57;;;16.70;99.90;;;;;;4955579;29;20948;-78
2022/08/28 06:16:12;;;;;;;9.93;4.20;;;16.80;99.90;;;;;;4955389;29;20996;-76
2022/08/28 06:18:39;;;;;;;17.93;4.90;;;16.90;99.90;;;;;;4954257;29;20178;-76
2022/08/28 06:21:05;;;;;;;7.90;3.40;;;17.00;99.90;;;;;;4954686;29;20973;-77
2022/08/28 06:23:31;;;;;;;13.20;4.70;;;17.10;99.90;;;;;;4955395;29;20413;-75
2022/08/28 06:25:57;;;;;;;10.13;4.10;;;17.20;99.90;;;;;;4955252;29;20432;-77
2022/08/28 06:28:27;;;;;;;9.03;3.33;;;17.00;99.90;;;;;;4955366;29;20413;-77
2022/08/28 06:30:53;;;;;;;11.17;3.77;;;17.00;99.90;;;;;;4954792;29;20425;-78
2022/08/28 06:33:20;;;;;;;8.40;3.10;;;17.10;99.90;;;;;;4954340;29;20871;-75
2022/08/28 06:35:49;;;;;;;10.60;4.43;;;17.20;99.90;;;;;;4955453;29;20910;-79
2022/08/28 06:38:16;;;;;;;7.80;3.90;;;17.30;99.90;;;;;;4955303;29;20409;-78
2022/08/28 06:40:45;;;;;;;10.50;3.93;;;17.30;99.90;;;;;;4954714;29;20508;-78
2022/08/28 06:43:12;;;;;;;11.47;3.87;;;17.20;99.90;;;;;;4955122;29;20384;-77
2022/08/28 06:45:42;;;;;;;12.80;3.47;;;17.30;99.90;;;;;;4955032;29;20433;-77
2022/08/28 06:48:10;;;;;;;9.57;3.70;;;17.30;99.90;;;;;;4955139;29;20388;-78
2022/08/28 06:50:40;;;;;;;12.57;4.60;;;17.20;99.90;;;;;;4953446;28;20475;-76
2022/08/28 06:53:11;;;;;;;10.73;3.77;;;17.40;99.90;;;;;;4954935;28;20456;-77
2022/08/28 06:55:37;;;;;;;7.87;4.80;;;17.40;99.90;;;;;;4955053;29;20449;-77
2022/08/28 06:58:04;;;;;;;13.13;4.37;;;17.50;99.90;;;;;;4955161;29;20430;-75
2022/08/28 07:00:30;;;;;;;8.83;3.40;;;17.60;99.90;;;;;;4954567;29;20436;-78
2022/08/28 07:02:56;;;;;;;10.60;3.40;;;17.60;99.90;;;;;;4954833;29;20447;-75
2022/08/28 07:05:22;;;;;;;9.20;3.13;;;17.60;99.90;;;;;;4954780;29;20392;-77
2022/08/28 07:07:47;;;;;;;7.37;3.00;;;17.70;99.90;;;;;;4954963;29;20432;-76
2022/08/28 07:10:13;;;;;;;10.90;4.30;;;17.90;99.90;;;;;;4954455;29;20194;-78
2022/08/28 07:12:39;;;;;;;7.07;3.13;;;17.90;99.90;;;;;;4954801;29;20188;-76
2022/08/28 07:15:06;;;;;;;8.00;3.10;;;17.90;99.90;;;;;;4956152;28;20185;-76
2022/08/28 07:17:31;;;;;;;6.27;3.40;;;17.80;99.90;;;;;;4958298;29;20748;-76
2022/08/28 07:19:57;;;;;;;5.97;2.90;;;17.90;99.90;;;;;;4958019;29;20508;-76
2022/08/28 07:22:24;;;;;;;8.07;3.00;;;18.00;99.90;;;;;;4958316;29;20255;-77
2022/08/28 07:24:50;;;;;;;7.43;2.70;;;18.20;99.90;;;;;;4958408;29;20575;-77
2022/08/28 07:27:15;;;;;;;8.80;3.03;;;18.40;99.90;;;;;;4957345;28;20421;-77
2022/08/28 07:29:41;;;;;;;11.80;2.97;;;18.50;99.90;;;;;;4958085;29;20213;-77
2022/08/28 07:32:07;;;;;;;9.73;3.20;;;18.70;99.90;;;;;;4957149;29;20212;-75
2022/08/28 07:34:38;;;;;;;10.60;2.60;;;18.70;99.90;;;;;;4958250;29;20184;-75
2022/08/28 07:37:06;;;;;;;7.80;2.57;;;18.70;99.90;;;;;;4958255;28;20452;-78
2022/08/28 07:39:32;;;;;;;7.30;2.63;;;18.80;99.90;;;;;;4958022;29;20880;-75
2022/08/28 07:41:58;;;;;;;10.03;2.60;;;18.70;99.90;;;;;;4956389;29;20471;-76
2022/08/28 07:47:10;;;;;;;7.50;3.03;;;18.90;99.90;;;;;;4958281;29;20197;-78
2022/08/28 07:49:36;;;;;;;14.97;3.40;;;19.00;99.90;;;;;;4956800;29;20406;-76
2022/08/28 07:52:03;;;;;;;8.60;3.00;;;19.10;99.90;;;;;;4957665;29;20877;-75
2022/08/28 07:54:29;;;;;;;10.87;2.53;;;19.10;99.90;;;;;;4958013;29;20472;-75
2022/08/28 07:56:55;;;;;;;4.63;2.43;;;19.20;99.90;;;;;;4956661;29;20920;-75
2022/08/28 07:59:20;;;;;;;9.50;3.20;;;19.20;99.90;;;;;;4956438;29;20880;-75
2022/08/28 08:01:47;;;;;;;9.63;2.67;;;19.30;99.90;;;;;;4957217;29;20216;-78
2022/08/28 08:04:15;;;;;;;6.83;2.33;;;19.20;99.90;;;;;;4957708;29;20202;-81
2022/08/28 08:06:41;;;;;;;7.40;2.70;;;19.30;99.90;;;;;;4957663;29;20412;-80
2022/08/28 08:09:10;;;;;;;7.63;2.93;;;19.40;99.90;;;;;;4957586;28;20396;-79
2022/08/28 08:11:36;;;;;;;11.57;3.20;;;19.40;99.90;;;;;;4956447;29;20448;-79
2022/08/28 08:14:03;;;;;;;6.90;3.00;;;19.60;99.90;;;;;;4950094;29;20429;-81
2022/08/28 08:16:33;;;;;;;8.03;2.70;;;19.80;99.90;;;;;;4957079;29;20756;-81
2022/08/28 08:18:59;;;;;;;14.67;3.33;;;20.10;99.90;;;;;;4957269;28;20489;-81
2022/08/28 08:21:26;;;;;;;13.00;3.60;;;20.00;99.90;;;;;;4955584;29;20575;-81
2022/08/28 08:23:52;;;;;;;9.80;2.83;;;20.10;99.90;;;;;;4955944;29;20492;-79
2022/08/28 08:26:20;;;;;;;8.33;2.80;;;20.20;99.90;;;;;;4956965;28;20520;-81
2022/08/28 08:28:47;;;;;;;11.57;2.80;;;20.40;99.90;;;;;;4957224;29;20590;-81
2022/08/28 08:31:25;;;;;;;4.40;2.50;;;20.60;99.90;;;;;;4956756;29;20507;-82
2022/08/28 08:33:57;;;;;;;6.97;2.60;;;20.50;99.90;;;;;;4955623;29;20475;-81
2022/08/28 08:36:24;;;;;;;9.77;3.23;;;20.60;99.90;;;;;;4955795;29;20922;-81
2022/08/28 08:38:51;;;;;;;7.73;2.70;;;20.80;99.90;;;;;;4957093;29;20511;-81
2022/08/28 08:41:29;;;;;;;5.90;2.70;;;21.20;99.90;;;;;;4956532;29;20460;-80
2022/08/28 08:44:00;;;;;;;10.13;2.53;;;21.30;99.90;;;;;;4956878;29;20416;-81
2022/08/28 08:46:32;;;;;;;7.13;3.20;;;21.70;99.90;;;;;;4957003;29;20793;-80
2022/08/28 08:49:03;;;;;;;11.47;3.53;;;21.90;99.90;;;;;;4956701;29;20414;-80
2022/08/28 08:51:46;;;;;;;6.13;2.77;;;22.00;99.90;;;;;;4956596;28;20432;-80
2022/08/28 08:54:17;;;;;;;11.10;3.77;;;21.90;99.90;;;;;;4956505;29;20808;-80
2022/08/28 08:56:45;;;;;;;7.23;2.80;;;21.90;99.90;;;;;;4956775;29;20753;-81
2022/08/28 08:59:19;;;;;;;11.47;2.90;;;21.80;99.90;;;;;;4955379;29;20433;-81
2022/08/28 09:01:57;;;;;;;5.50;2.60;;;21.80;99.90;;;;;;4956212;29;20464;-81
2022/08/28 09:04:33;;;;;;;6.30;2.53;;;21.30;99.90;;;;;;4956586;29;20894;-81
2022/08/28 09:07:03;;;;;;;7.10;2.70;;;21.50;99.90;;;;;;4956530;29;20869;-79
2022/08/28 09:09:33;;;;;;;9.73;2.80;;;22.10;99.90;;;;;;4954457;29;20423;-79
2022/08/28 09:12:13;;;;;;;7.00;2.77;;;22.80;99.90;;;;;;4955581;29;20852;-81
2022/08/28 09:15:04;;;;;;;6.97;2.10;;;23.40;99.90;;;;;;4956256;29;20416;-81
2022/08/28 09:17:41;;;;;;;7.70;2.33;;;23.60;99.90;;;;;;4955480;29;20424;-82
2022/08/28 09:20:09;;;;;;;6.90;3.40;;;23.50;99.90;;;;;;4956438;29;20416;-79
2022/08/28 09:22:36;;;;;;;8.90;2.90;;;22.80;99.90;;;;;;4955809;29;20452;-81
2022/08/28 09:25:04;;;;;;;7.13;2.00;;;22.90;99.90;;;;;;4956191;29;20412;-82
2022/08/28 09:27:32;;;;;;;7.77;2.47;;;23.30;99.90;;;;;;4956101;29;20421;-82
2022/08/28 09:30:00;;;;;;;5.90;3.40;;;23.70;99.90;;;;;;4954800;29;20780;-80
2022/08/28 09:32:28;;;;;;;9.47;2.90;;;24.50;99.90;;;;;;4956186;29;20450;-82
2022/08/28 09:35:32;;;;;;;8.23;2.70;;;24.50;99.90;;;;;;4956224;29;20420;-79
2022/08/28 09:38:21;;;;;;;7.87;2.70;;;24.40;99.90;;;;;;4955519;28;20416;-80
2022/08/28 09:43:34;;;;;;;7.57;3.10;;;24.50;99.90;;;;;;4956304;29;20470;-81
2022/08/28 09:46:17;;;;;;;4.97;2.00;;;24.20;99.90;;;;;;4955927;29;20548;-79
2022/08/28 09:48:45;;;;;;;6.63;2.33;;;24.30;99.90;;;;;;4955980;29;20841;-80
2022/08/28 09:51:28;;;;;;;7.70;2.83;;;25.10;99.90;;;;;;4955385;29;20440;-81
2022/08/28 09:53:53;;;;;;;6.17;2.17;;;25.80;99.90;;;;;;4956004;29;20416;-75
2022/08/28 09:56:30;;;;;;;4.60;2.37;;;24.90;99.90;;;;;;4955762;29;20420;-78
2022/08/28 09:59:06;;;;;;;9.57;3.30;;;24.40;99.90;;;;;;4954305;29;20533;-78
2022/08/28 10:01:51;;;;;;;7.20;2.60;;;25.50;99.90;;;;;;4955175;29;20503;-79
2022/08/28 10:04:41;;;;;;;7.30;2.40;;;24.80;99.90;;;;;;4955404;29;20487;-78
2022/08/28 10:07:21;;;;;;;4.03;2.40;;;25.10;99.90;;;;;;4955750;29;20825;-78
2022/08/28 10:10:08;;;;;;;6.90;2.37;;;25.30;99.90;;;;;;4955194;29;20420;-79
2022/08/28 10:12:58;;;;;;;3.73;2.17;;;26.70;99.90;;;;;;4955021;29;20803;-78
2022/08/28 10:15:23;;;;;;;6.77;2.23;;;27.80;99.90;;;;;;4955428;29;20451;-79
2022/08/28 10:18:01;;;;;;;5.33;2.40;;;27.90;99.90;;;;;;4955367;29;20425;-79
2022/08/28 10:20:52;;;;;;;9.33;2.97;;;28.10;99.90;;;;;;4955170;29;20196;-79
2022/08/28 10:23:44;;;;;;;8.33;2.67;;;26.50;99.90;;;;;;4955310;29;21004;-79
2022/08/28 10:26:25;;;;;;;4.87;2.30;;;24.80;99.90;;;;;;4955442;29;20409;-81
2022/08/28 10:29:04;;;;;;;3.23;1.80;;;25.50;99.90;;;;;;4955323;29;20913;-81
2022/08/28 10:32:11;;;;;;;9.80;2.50;;;25.80;99.90;;;;;;4954956;29;20925;-83
2022/08/28 10:34:55;;;;;;;5.87;2.63;;;25.90;99.90;;;;;;4935300;28;20456;-83
2022/08/28 10:37:51;;;;;;;8.40;2.03;;;25.00;99.90;;;;;;4955469;29;20803;-82
2022/08/28 10:40:28;;;;;;;12.87;3.17;;;25.00;99.90;;;;;;4955000;29;20529;-84
2022/08/28 10:43:02;;;;;;;5.50;2.23;;;24.70;99.90;;;;;;4955129;29;20444;-84
2022/08/28 10:45:29;;;;;;;4.93;2.43;;;25.50;99.90;;;;;;4955420;29;20533;-83
2022/08/28 10:48:04;;;;;;;9.30;2.67;;;26.10;99.90;;;;;;4955519;28;20423;-84
2022/08/28 10:50:45;;;;;;;5.50;2.30;;;25.30;99.90;;;;;;4957335;29;20976;-84
2022/08/28 10:53:43;;;;;;;4.13;2.60;;;25.60;99.90;;;;;;4959051;29;20783;-83
2022/08/28 10:56:22;;;;;;;6.33;2.40;;;26.30;99.90;;;;;;4958290;29;20432;-82
2022/08/28 10:58:53;;;;;;;4.00;2.30;;;26.30;99.90;;;;;;4958847;29;20421;-81
2022/08/28 11:01:29;;;;;;;4.73;2.40;;;25.40;99.90;;;;;;4958432;29;20500;-81
2022/08/28 11:03:58;;;;;;;5.23;2.33;;;25.80;99.90;;;;;;4958840;29;20503;-81
2022/08/28 11:06:48;;;;;;;3.60;2.00;;;26.80;99.90;;;;;;4957647;29;20420;-82
2022/08/28 11:09:26;;;;;;;6.27;2.70;;;26.80;99.90;;;;;;4958137;29;20428;-81
2022/08/28 11:11:55;;;;;;;9.00;2.50;;;26.50;99.90;;;;;;4958499;29;20528;-82
2022/08/28 11:14:43;;;;;;;4.37;2.27;;;26.20;99.90;;;;;;4958833;29;20412;-81
2022/08/28 11:17:30;;;;;;;6.80;2.73;;;26.20;99.90;;;;;;4958135;28;20435;-83
2022/08/28 11:20:21;;;;;;;4.70;2.27;;;26.10;99.90;;;;;;4958143;29;20860;-81
2022/08/28 11:22:49;;;;;;;6.63;2.40;;;26.30;99.90;;;;;;4957574;29;20522;-81
2022/08/28 11:25:32;;;;;;;7.17;2.57;;;26.20;99.90;;;;;;4938113;29;20428;-81
2022/08/28 11:28:22;;;;;;;6.33;2.50;;;26.70;99.90;;;;;;4949744;29;20412;-81
2022/08/28 11:31:08;;;;;;;4.67;2.30;;;26.70;99.90;;;;;;4957711;29;20796;-82
2022/08/28 11:33:49;;;;;;;4.37;2.60;;;26.20;99.90;;;;;;4951701;29;20436;-81
2022/08/28 11:36:20;;;;;;;6.03;2.20;;;26.10;99.90;;;;;;4958252;29;20408;-81
2022/08/28 11:38:52;;;;;;;5.73;2.17;;;26.90;99.90;;;;;;4957746;28;20463;-79
2022/08/28 11:41:26;;;;;;;7.83;2.30;;;26.80;99.70;;;;;;4957605;28;20456;-78
2022/08/28 11:44:10;;;;;;;7.07;3.20;;;26.20;99.90;;;;;;4958378;28;20424;-78
2022/08/28 11:46:44;;;;;;;4.30;2.17;;;26.50;99.90;;;;;;4957883;28;20435;-79
2022/08/28 11:49:25;;;;;;;8.27;2.90;;;27.10;99.90;;;;;;4957980;28;20412;-78
2022/08/28 11:52:55;;;;;;;3.83;2.17;;;27.70;98.50;;;;;;4957472;28;20669;-80
2022/08/28 11:55:49;;;;;;;4.83;2.03;;;26.80;99.20;;;;;;4879998;29;20471;-79
2022/08/28 11:58:26;;;;;;;3.70;1.90;;;27.70;97.80;;;;;;4942208;28;20436;-79
2022/08/28 12:01:08;;;;;;;4.77;2.00;;;28.50;95.60;;;;;;4971776;28;20456;-78
2022/08/28 12:03:52;;;;;;;4.53;2.30;;;28.30;92.60;;;;;;4957684;28;20628;-79
2022/08/28 12:06:43;;;;;;;6.00;2.57;;;28.10;92.70;;;;;;4956488;29;20447;-79
2022/08/28 12:09:11;;;;;;;4.47;2.37;;;27.40;94.10;;;;;;4957555;28;20413;-79
2022/08/28 12:11:40;;;;;;;7.43;2.93;;;27.10;94.20;;;;;;4957322;28;20783;-78
2022/08/28 12:14:30;;;;;;;5.10;2.43;;;27.50;94.10;;;;;;4957433;28;20523;-80
2022/08/28 12:17:02;;;;;;;8.20;2.10;;;28.00;92.80;;;;;;4921446;28;20440;-80
2022/08/28 12:19:39;;;;;;;8.23;3.10;;;27.80;92.70;;;;;;4957242;28;20424;-79
2022/08/28 12:22:12;;;;;;;7.07;2.73;;;27.50;93.10;;;;;;4956843;28;20547;-79
2022/08/28 12:25:01;;;;;;;6.40;1.97;;;28.30;91.70;;;;;;4955939;29;20938;-78
2022/08/28 12:27:27;;;;;;;7.73;2.20;;;28.10;91.60;;;;;;4957279;28;20468;-79
2022/08/28 12:29:58;;;;;;;6.00;1.93;;;28.40;90.80;;;;;;4955766;28;20941;-79
2022/08/28 12:32:43;;;;;;;6.13;2.10;;;28.70;89.90;;;;;;4957276;28;20429;-78
2022/08/28 12:35:18;;;;;;;5.07;2.03;;;28.70;85.70;;;;;;4957091;29;20431;-79
2022/08/28 12:37:44;;;;;;;3.50;2.10;;;28.40;84.20;;;;;;4957061;28;20499;-79
2022/08/28 12:40:18;;;;;;;8.73;2.40;;;28.40;83.70;;;;;;4956563;28;20467;-80
2022/08/28 12:42:59;;;;;;;5.73;1.90;;;28.00;84.70;;;;;;4956867;28;20479;-78
2022/08/28 12:45:47;;;;;;;6.87;2.43;;;28.10;86.00;;;;;;4956855;28;20440;-80
2022/08/28 12:48:20;;;;;;;4.77;2.10;;;28.60;86.80;;;;;;4954718;29;20425;-78
2022/08/28 12:50:46;;;;;;;6.60;2.20;;;29.40;82.30;;;;;;4956395;28;20809;-79
2022/08/28 12:53:16;;;;;;;4.17;2.33;;;29.10;80.60;;;;;;4956914;28;20412;-80
2022/08/28 12:55:44;;;;;;;5.53;2.50;;;29.10;80.70;;;;;;4956680;28;20451;-80
2022/08/28 12:58:27;;;;;;;5.57;2.00;;;28.90;82.00;;;;;;4956708;28;20479;-80
2022/08/28 13:00:59;;;;;;;4.27;2.10;;;28.80;82.20;;;;;;4956317;28;21000;-79
2022/08/28 13:03:25;;;;;;;5.67;2.33;;;28.90;82.00;;;;;;4955574;29;20432;-79
2022/08/28 13:06:02;;;;;;;3.40;2.23;;;28.10;81.10;;;;;;4956410;29;20468;-80
2022/08/28 13:08:28;;;;;;;5.30;1.90;;;28.50;81.70;;;;;;4956552;28;20172;-79